TUP9683 UIUU-UEEE
Flight info
| Callsign | TUP9683 |
|---|---|
| Flight time | N/A |
| Altitude | 35000 |
| Route | K0839F350 KUMAT A809 RINOP W268 NERKA W118 BDB W269 OLDEP B155 LEPRI |
| Aircraft | B752/M-SDE2E3FGHIJ3J4J7RWXY/LB1 |
Departure
| Time | 2026-05-05 09:39 |
|---|---|
| Airport | Baikal International Airport (UIUU) |
Arrival
| Time | N/A |
|---|---|
| Airport | Platon Oyunsky Yakutsk International Airport (UEEE) |
| Time | Latitude | Longitude | Altitude | Speed | Heading |
|---|---|---|---|---|---|
| 2026-05-05 09:29 | 51.80532 | 107.43909 | 1698 ft | 0 kts | 167° |
| 2026-05-05 09:31 | 51.80524 | 107.43913 | 1698 ft | 2 kts | 167° |
| 2026-05-05 09:31 | 51.80502 | 107.43925 | 1698 ft | 3 kts | 144° |
| 2026-05-05 09:31 | 51.80491 | 107.43953 | 1698 ft | 3 kts | 106° |
| 2026-05-05 09:32 | 51.80495 | 107.43983 | 1698 ft | 3 kts | 62° |
| 2026-05-05 09:32 | 51.80507 | 107.44002 | 1698 ft | 4 kts | 28° |
| 2026-05-05 09:32 | 51.80560 | 107.43996 | 1698 ft | 5 kts | 346° |
| 2026-05-05 09:32 | 51.80582 | 107.43974 | 1698 ft | 6 kts | 315° |
| 2026-05-05 09:33 | 51.80662 | 107.43914 | 1698 ft | 12 kts | 346° |
| 2026-05-05 09:33 | 51.80743 | 107.43883 | 1698 ft | 10 kts | 336° |
| 2026-05-05 09:33 | 51.80772 | 107.43806 | 1698 ft | 8 kts | 267° |
| 2026-05-05 09:33 | 51.80757 | 107.43678 | 1698 ft | 15 kts | 258° |
| 2026-05-05 09:34 | 51.80730 | 107.43474 | 1698 ft | 19 kts | 258° |
| 2026-05-05 09:34 | 51.80713 | 107.43340 | 1698 ft | 17 kts | 258° |
| 2026-05-05 09:34 | 51.80682 | 107.43109 | 1698 ft | 13 kts | 258° |
| 2026-05-05 09:34 | 51.80667 | 107.42996 | 1698 ft | 10 kts | 258° |
| 2026-05-05 09:35 | 51.80650 | 107.42853 | 1698 ft | 15 kts | 258° |
| 2026-05-05 09:35 | 51.80597 | 107.42458 | 1697 ft | 18 kts | 258° |
| 2026-05-05 09:35 | 51.80574 | 107.42273 | 1697 ft | 15 kts | 258° |
| 2026-05-05 09:36 | 51.80551 | 107.42098 | 1697 ft | 15 kts | 257° |
| 2026-05-05 09:36 | 51.80530 | 107.41945 | 1697 ft | 12 kts | 258° |
| 2026-05-05 09:36 | 51.80516 | 107.41824 | 1697 ft | 9 kts | 259° |
| 2026-05-05 09:36 | 51.80518 | 107.41739 | 1697 ft | 6 kts | 302° |
| 2026-05-05 09:37 | 51.80559 | 107.41703 | 1697 ft | 7 kts | 346° |
| 2026-05-05 09:37 | 51.80611 | 107.41685 | 1698 ft | 7 kts | 348° |
| 2026-05-05 09:37 | 51.80655 | 107.41679 | 1698 ft | 5 kts | 15° |
| 2026-05-05 09:37 | 51.80673 | 107.41710 | 1698 ft | 3 kts | 65° |
| 2026-05-05 09:38 | 51.80678 | 107.41737 | 1698 ft | 0 kts | 77° |
| 2026-05-05 09:38 | 51.80679 | 107.41744 | 1697 ft | 2 kts | 77° |
| 2026-05-05 09:38 | 51.80683 | 107.41775 | 1698 ft | 3 kts | 77° |
| 2026-05-05 09:38 | 51.80713 | 107.41994 | 1698 ft | 46 kts | 75° |
| 2026-05-05 09:39 | 51.80778 | 107.42494 | 1698 ft | 90 kts | 78° |
| 2026-05-05 09:39 | 51.81025 | 107.44417 | 1701 ft | 169 kts | 78° |
| 2026-05-05 09:39 | 51.81262 | 107.46354 | 2151 ft | 185 kts | 72° |
| 2026-05-05 09:39 | 51.81527 | 107.48382 | 2978 ft | 184 kts | 73° |
| 2026-05-05 09:40 | 51.81692 | 107.49671 | 3491 ft | 177 kts | 72° |
| 2026-05-05 09:40 | 51.82040 | 107.52271 | 4159 ft | 182 kts | 72° |
| 2026-05-05 09:40 | 51.82301 | 107.54276 | 4687 ft | 183 kts | 72° |
| 2026-05-05 09:40 | 51.82569 | 107.56317 | 5098 ft | 193 kts | 71° |
| 2026-05-05 09:41 | 51.82719 | 107.57780 | 5298 ft | 206 kts | 77° |
| 2026-05-05 09:41 | 51.82932 | 107.60139 | 5690 ft | 218 kts | 76° |
| 2026-05-05 09:41 | 51.83246 | 107.63507 | 6178 ft | 241 kts | 76° |
| 2026-05-05 09:41 | 51.83498 | 107.66320 | 6558 ft | 260 kts | 77° |
| 2026-05-05 09:42 | 51.83757 | 107.69251 | 7022 ft | 275 kts | 77° |
| 2026-05-05 09:42 | 51.83937 | 107.71310 | 7451 ft | 279 kts | 78° |
| 2026-05-05 09:42 | 51.84293 | 107.75441 | 8519 ft | 280 kts | 78° |
| 2026-05-05 09:42 | 51.84562 | 107.78551 | 9251 ft | 283 kts | 78° |
| 2026-05-05 09:43 | 51.84839 | 107.81718 | 9961 ft | 286 kts | 76° |
| 2026-05-05 09:43 | 51.85444 | 107.84718 | 10488 ft | 289 kts | 60° |
| 2026-05-05 09:43 | 51.86047 | 107.86724 | 10648 ft | 302 kts | 60° |
| 2026-05-05 09:43 | 51.87308 | 107.90983 | 10988 ft | 327 kts | 61° |
| 2026-05-05 09:44 | 51.87962 | 107.93188 | 11261 ft | 334 kts | 61° |
| 2026-05-05 09:44 | 51.88970 | 107.96586 | 12006 ft | 336 kts | 61° |
| 2026-05-05 09:44 | 51.89973 | 107.99962 | 12658 ft | 339 kts | 61° |
| 2026-05-05 09:44 | 51.91353 | 108.04604 | 13544 ft | 343 kts | 61° |
| 2026-05-05 09:45 | 51.92390 | 108.08096 | 14186 ft | 347 kts | 61° |
| 2026-05-05 09:45 | 51.93424 | 108.11581 | 14824 ft | 350 kts | 61° |
| 2026-05-05 09:45 | 51.94133 | 108.13979 | 15226 ft | 353 kts | 62° |
| 2026-05-05 09:45 | 51.95067 | 108.19065 | 16069 ft | 361 kts | 77° |
| 2026-05-05 09:46 | 51.95464 | 108.23101 | 16657 ft | 365 kts | 77° |
| 2026-05-05 09:46 | 51.95734 | 108.25797 | 17041 ft | 367 kts | 77° |
| 2026-05-05 09:46 | 51.96135 | 108.29901 | 17637 ft | 371 kts | 77° |
| 2026-05-05 09:46 | 51.96534 | 108.34036 | 18225 ft | 373 kts | 77° |
| 2026-05-05 09:47 | 51.97060 | 108.39550 | 18986 ft | 377 kts | 77° |
| 2026-05-05 09:47 | 51.97329 | 108.42390 | 19339 ft | 380 kts | 77° |
| 2026-05-05 09:47 | 51.97861 | 108.48023 | 20057 ft | 384 kts | 77° |
| 2026-05-05 09:47 | 51.98266 | 108.52335 | 20484 ft | 390 kts | 77° |
| 2026-05-05 09:48 | 51.98685 | 108.56689 | 21039 ft | 390 kts | 75° |
| 2026-05-05 09:48 | 51.99081 | 108.59549 | 21295 ft | 393 kts | 71° |
| 2026-05-05 09:48 | 51.99993 | 108.65245 | 21880 ft | 398 kts | 72° |
| 2026-05-05 09:48 | 52.00450 | 108.68178 | 22169 ft | 400 kts | 72° |
| 2026-05-05 09:49 | 52.01362 | 108.74052 | 22797 ft | 404 kts | 72° |
| 2026-05-05 09:49 | 52.02041 | 108.78452 | 23200 ft | 408 kts | 73° |
| 2026-05-05 09:49 | 52.02728 | 108.82925 | 23616 ft | 411 kts | 73° |
| 2026-05-05 09:49 | 52.03418 | 108.87421 | 23978 ft | 415 kts | 73° |
| 2026-05-05 09:50 | 52.04118 | 108.92004 | 24359 ft | 419 kts | 73° |
| 2026-05-05 09:50 | 52.04584 | 108.95071 | 24684 ft | 419 kts | 73° |
| 2026-05-05 09:50 | 52.05289 | 108.99704 | 24959 ft | 424 kts | 73° |
| 2026-05-05 09:50 | 52.06229 | 109.05912 | 25404 ft | 428 kts | 73° |
| 2026-05-05 09:51 | 52.06697 | 109.09016 | 25655 ft | 429 kts | 73° |
| 2026-05-05 09:51 | 52.07404 | 109.13724 | 25958 ft | 432 kts | 73° |
| 2026-05-05 09:51 | 52.08331 | 109.20036 | 26342 ft | 435 kts | 73° |
| 2026-05-05 09:51 | 52.09032 | 109.24823 | 26638 ft | 436 kts | 73° |
| 2026-05-05 09:52 | 52.09500 | 109.28027 | 26801 ft | 438 kts | 73° |
| 2026-05-05 09:52 | 52.10200 | 109.32832 | 27089 ft | 439 kts | 73° |
| 2026-05-05 09:52 | 52.11140 | 109.39304 | 27434 ft | 442 kts | 73° |
| 2026-05-05 09:52 | 52.11603 | 109.42503 | 27574 ft | 444 kts | 73° |
| 2026-05-05 09:53 | 52.12544 | 109.49028 | 27947 ft | 445 kts | 73° |
| 2026-05-05 09:53 | 52.13245 | 109.53910 | 28186 ft | 447 kts | 73° |
| 2026-05-05 09:53 | 52.13953 | 109.58849 | 28442 ft | 448 kts | 73° |
| 2026-05-05 09:53 | 52.14421 | 109.62124 | 28598 ft | 449 kts | 74° |
| 2026-05-05 09:54 | 52.15361 | 109.68720 | 28869 ft | 453 kts | 75° |
| 2026-05-05 09:54 | 52.16068 | 109.73706 | 29188 ft | 452 kts | 75° |
| 2026-05-05 09:54 | 52.16538 | 109.76987 | 29347 ft | 452 kts | 73° |
| 2026-05-05 09:54 | 52.17812 | 109.83527 | 29591 ft | 454 kts | 69° |
| 2026-05-05 09:55 | 52.18488 | 109.86767 | 29758 ft | 455 kts | 69° |
| 2026-05-05 09:55 | 52.19831 | 109.93248 | 30032 ft | 457 kts | 69° |
| 2026-05-05 09:55 | 52.20836 | 109.98109 | 30202 ft | 459 kts | 69° |
| 2026-05-05 09:55 | 52.21854 | 110.03033 | 30429 ft | 460 kts | 69° |
| 2026-05-05 09:56 | 52.22533 | 110.06322 | 30563 ft | 462 kts | 69° |
| 2026-05-05 09:56 | 52.23891 | 110.12929 | 30852 ft | 463 kts | 69° |
| 2026-05-05 09:56 | 52.25604 | 110.21280 | 31102 ft | 468 kts | 69° |
| 2026-05-05 09:57 | 52.26629 | 110.26299 | 31327 ft | 468 kts | 69° |
| 2026-05-05 09:57 | 52.27644 | 110.31278 | 31467 ft | 471 kts | 69° |
| 2026-05-05 09:57 | 52.28676 | 110.36356 | 31671 ft | 471 kts | 69° |
| 2026-05-05 09:57 | 52.30049 | 110.43130 | 31818 ft | 476 kts | 69° |
| 2026-05-05 09:58 | 52.30739 | 110.46544 | 31993 ft | 475 kts | 69° |
| 2026-05-05 09:58 | 52.31777 | 110.51691 | 32233 ft | 474 kts | 69° |
| 2026-05-05 09:58 | 52.32803 | 110.56795 | 32351 ft | 477 kts | 69° |
| 2026-05-05 09:58 | 52.34176 | 110.63641 | 32666 ft | 476 kts | 69° |
| 2026-05-05 09:59 | 52.35193 | 110.68725 | 32837 ft | 477 kts | 70° |
| 2026-05-05 09:59 | 52.36227 | 110.73911 | 32985 ft | 478 kts | 70° |
| 2026-05-05 09:59 | 52.36899 | 110.77288 | 33120 ft | 478 kts | 70° |
| 2026-05-05 09:59 | 52.38271 | 110.84202 | 33375 ft | 477 kts | 70° |
| 2026-05-05 10:00 | 52.39967 | 110.92780 | 33648 ft | 478 kts | 70° |
| 2026-05-05 10:00 | 52.40988 | 110.97968 | 33808 ft | 479 kts | 70° |
| 2026-05-05 10:00 | 52.42341 | 111.04858 | 34073 ft | 479 kts | 70° |
| 2026-05-05 10:01 | 52.44026 | 111.13476 | 34365 ft | 478 kts | 70° |
| 2026-05-05 10:01 | 52.45032 | 111.18639 | 34507 ft | 479 kts | 70° |
| 2026-05-05 10:01 | 52.46383 | 111.25594 | 34729 ft | 479 kts | 70° |
| 2026-05-05 10:02 | 52.47380 | 111.30750 | 34894 ft | 475 kts | 70° |
| 2026-05-05 10:02 | 52.48380 | 111.35902 | 34897 ft | 473 kts | 68° |
| 2026-05-05 10:02 | 52.50718 | 111.43897 | 34927 ft | 470 kts | 53° |
| 2026-05-05 10:03 | 52.53469 | 111.49381 | 34915 ft | 467 kts | 40° |
| 2026-05-05 10:03 | 52.55971 | 111.52776 | 34916 ft | 463 kts | 31° |
| 2026-05-05 10:03 | 52.61680 | 111.57247 | 34911 ft | 454 kts | 14° |
| 2026-05-05 10:04 | 52.66739 | 111.59673 | 34894 ft | 455 kts | 13° |
| 2026-05-05 10:04 | 52.73848 | 111.62920 | 34891 ft | 455 kts | 12° |
| 2026-05-05 10:05 | 52.79927 | 111.65627 | 34886 ft | 454 kts | 13° |
| 2026-05-05 10:05 | 52.86005 | 111.68315 | 34881 ft | 453 kts | 13° |
| 2026-05-05 10:06 | 52.91070 | 111.70553 | 34876 ft | 454 kts | 13° |
| 2026-05-05 10:06 | 52.97163 | 111.73248 | 34877 ft | 454 kts | 13° |
| 2026-05-05 10:07 | 53.03249 | 111.75948 | 34880 ft | 455 kts | 13° |
| 2026-05-05 10:07 | 53.10351 | 111.79106 | 34882 ft | 453 kts | 13° |
| 2026-05-05 10:08 | 53.15416 | 111.81365 | 34879 ft | 453 kts | 13° |
| 2026-05-05 10:08 | 53.21461 | 111.84068 | 34900 ft | 452 kts | 13° |
| 2026-05-05 10:09 | 53.27523 | 111.86787 | 34893 ft | 451 kts | 13° |
| 2026-05-05 10:09 | 53.34584 | 111.89964 | 34887 ft | 452 kts | 14° |
| 2026-05-05 10:10 | 53.39613 | 111.92233 | 34898 ft | 451 kts | 14° |
| 2026-05-05 10:10 | 53.45625 | 111.94954 | 34894 ft | 451 kts | 14° |
| 2026-05-05 10:11 | 53.51650 | 111.97688 | 34898 ft | 449 kts | 14° |
| 2026-05-05 10:11 | 53.58677 | 112.00887 | 34898 ft | 449 kts | 14° |
| 2026-05-05 10:12 | 53.63671 | 112.03162 | 34889 ft | 449 kts | 14° |
| 2026-05-05 10:12 | 53.69698 | 112.05909 | 34894 ft | 450 kts | 14° |
| 2026-05-05 10:13 | 53.75697 | 112.08652 | 34890 ft | 449 kts | 14° |
| 2026-05-05 10:13 | 53.82695 | 112.11861 | 34883 ft | 449 kts | 14° |
| 2026-05-05 10:14 | 53.87708 | 112.14167 | 34881 ft | 447 kts | 14° |
| 2026-05-05 10:14 | 53.93678 | 112.16921 | 34882 ft | 447 kts | 14° |
| 2026-05-05 10:15 | 53.99670 | 112.19693 | 34894 ft | 448 kts | 14° |
| 2026-05-05 10:15 | 54.05671 | 112.22478 | 34872 ft | 448 kts | 14° |
| 2026-05-05 10:16 | 54.11641 | 112.25257 | 34882 ft | 447 kts | 14° |
| 2026-05-05 10:16 | 54.17598 | 112.28037 | 34877 ft | 446 kts | 15° |
| 2026-05-05 10:17 | 54.24561 | 112.31299 | 34890 ft | 445 kts | 15° |
| 2026-05-05 10:17 | 54.29509 | 112.33623 | 34871 ft | 444 kts | 15° |
| 2026-05-05 10:18 | 54.35466 | 112.36429 | 34884 ft | 445 kts | 15° |
| 2026-05-05 10:18 | 54.41385 | 112.39225 | 34882 ft | 444 kts | 15° |
| 2026-05-05 10:19 | 54.47318 | 112.42036 | 34871 ft | 443 kts | 15° |
| 2026-05-05 10:19 | 54.54226 | 112.45321 | 34859 ft | 443 kts | 15° |
| 2026-05-05 10:20 | 54.59122 | 112.47656 | 34869 ft | 442 kts | 15° |
| 2026-05-05 10:20 | 54.62087 | 112.49072 | 34872 ft | 442 kts | 15° |